Time;durP1;ratioP1;P1;durP2;ratioP2;P2;SDS_P1;SDS_P2;PMS_P1;PMS_P2;Temp;Humidity;BMP_temperature;BMP_pressure;BME280_temperature;BME280_humidity;BME280_pressure;Samples;Min_cycle;Max_cycle;Signal;HPM_P1;HPM_P2
2023/03/07 00:00:41;;;;;;;21.92;13.57;;;;;;;;;;5076366;28;20102;-82
2023/03/07 00:03:08;;;;;;;19.75;12.30;;;;;;;;;;5092212;28;20044;-82
2023/03/07 00:05:34;;;;;;;18.70;11.13;;;;;;;;;;5100063;28;20044;-82
2023/03/07 00:08:00;;;;;;;18.38;9.93;;;;;;;;;;5099592;28;20036;-82
2023/03/07 00:10:26;;;;;;;16.92;9.77;;;;;;;;;;5098383;28;20080;-82
2023/03/07 00:12:52;;;;;;;15.38;10.07;;;;;;;;;;5099902;28;20099;-81
2023/03/07 00:15:18;;;;;;;14.23;8.68;;;;;;;;;;5081772;28;20048;-82
2023/03/07 00:17:44;;;;;;;13.75;8.98;;;;;;;;;;5087769;28;20055;-82
2023/03/07 00:20:13;;;;;;;15.05;8.40;;;;;;;;;;5080831;28;20060;-82
2023/03/07 00:22:39;;;;;;;15.32;9.02;;;;;;;;;;5079831;28;20040;-82
2023/03/07 00:25:06;;;;;;;16.23;8.40;;;;;;;;;;5081926;28;20040;-82
2023/03/07 00:27:33;;;;;;;12.95;7.43;;;;;;;;;;5096850;28;20040;-82
2023/03/07 00:29:59;;;;;;;13.43;7.43;;;;;;;;;;5086776;28;20055;-81
2023/03/07 00:32:25;;;;;;;11.30;6.45;;;;;;;;;;5077723;28;20052;-82
2023/03/07 00:34:51;;;;;;;10.88;6.15;;;;;;;;;;5092435;28;20100;-81
2023/03/07 00:37:17;;;;;;;11.27;6.22;;;;;;;;;;5095514;28;20040;-81
2023/03/07 00:39:43;;;;;;;11.75;6.38;;;;;;;;;;5097258;28;20441;-81
2023/03/07 00:42:10;;;;;;;10.50;5.97;;;;;;;;;;5098609;28;20085;-81
2023/03/07 00:44:36;;;;;;;10.18;5.63;;;;;;;;;;5080643;28;20041;-82
2023/03/07 00:47:02;;;;;;;9.32;4.95;;;;;;;;;;5077180;28;20410;-81
2023/03/07 00:49:28;;;;;;;11.15;5.28;;;;;;;;;;5087393;28;20063;-81
2023/03/07 00:51:54;;;;;;;7.53;4.45;;;;;;;;;;5078524;28;20123;-82
2023/03/07 00:54:20;;;;;;;7.55;3.97;;;;;;;;;;5086062;28;20060;-81
2023/03/07 00:56:46;;;;;;;7.38;3.83;;;;;;;;;;5092948;28;20047;-82
2023/03/07 00:59:12;;;;;;;9.23;3.28;;;;;;;;;;5085103;28;20040;-82
2023/03/07 01:01:38;;;;;;;7.55;3.33;;;;;;;;;;5086322;28;20066;-82
2023/03/07 01:04:04;;;;;;;6.45;2.90;;;;;;;;;;5058666;28;20080;-81
2023/03/07 01:06:31;;;;;;;6.07;2.90;;;;;;;;;;5075866;28;20106;-82
2023/03/07 01:08:59;;;;;;;7.93;2.70;;;;;;;;;;5075630;28;20101;-82
2023/03/07 01:11:26;;;;;;;4.82;2.03;;;;;;;;;;5090868;28;20040;-82
2023/03/07 01:13:54;;;;;;;5.90;2.38;;;;;;;;;;5094688;28;20422;-82
2023/03/07 01:16:21;;;;;;;8.18;2.47;;;;;;;;;;5094592;28;20055;-82
2023/03/07 01:18:51;;;;;;;7.07;2.75;;;;;;;;;;5082418;28;20047;-82
2023/03/07 01:21:19;;;;;;;5.82;2.28;;;;;;;;;;5075743;28;20051;-82
2023/03/07 01:23:45;;;;;;;6.97;2.22;;;;;;;;;;5075065;28;20045;-82
2023/03/07 01:26:15;;;;;;;8.07;1.40;;;;;;;;;;5089664;28;20044;-82
2023/03/07 01:28:42;;;;;;;7.78;1.40;;;;;;;;;;5080246;28;20114;-82
2023/03/07 01:31:08;;;;;;;5.03;1.35;;;;;;;;;;5080832;28;20490;-82
2023/03/07 01:33:34;;;;;;;6.82;1.35;;;;;;;;;;5073040;28;20060;-82
2023/03/07 01:36:00;;;;;;;4.72;1.40;;;;;;;;;;5073587;28;20075;-82
2023/03/07 01:38:27;;;;;;;7.57;1.58;;;;;;;;;;5077622;28;20040;-82
2023/03/07 01:40:53;;;;;;;5.80;1.40;;;;;;;;;;5073881;28;20041;-82
2023/03/07 01:43:25;;;;;;;7.25;1.27;;;;;;;;;;5085407;28;20100;-81
2023/03/07 01:46:10;;;;;;;9.43;1.40;;;;;;;;;;5078888;28;20087;-82
2023/03/07 01:48:36;;;;;;;7.82;1.30;;;;;;;;;;5073561;28;20052;-81
2023/03/07 01:51:02;;;;;;;7.10;1.30;;;;;;;;;;5083992;28;20044;-81
2023/03/07 01:53:28;;;;;;;5.43;1.40;;;;;;;;;;5080365;28;20351;-80
2023/03/07 01:55:56;;;;;;;8.40;1.90;;;;;;;;;;5079056;28;20041;-81
2023/03/07 01:58:22;;;;;;;8.25;1.55;;;;;;;;;;5085382;28;20047;-81
2023/03/07 02:00:48;;;;;;;6.70;1.95;;;;;;;;;;5073916;28;20059;-81
2023/03/07 02:03:20;;;;;;;4.63;1.38;;;;;;;;;;5073095;28;20042;-81
2023/03/07 02:05:50;;;;;;;8.23;2.10;;;;;;;;;;5072993;28;20068;-81
2023/03/07 02:08:18;;;;;;;5.93;1.70;;;;;;;;;;5073617;28;20044;-81
2023/03/07 02:10:44;;;;;;;8.88;1.65;;;;;;;;;;5073601;28;20483;-81
2023/03/07 02:13:11;;;;;;;7.15;1.63;;;;;;;;;;5082148;28;20067;-81
2023/03/07 02:15:38;;;;;;;8.90;1.90;;;;;;;;;;5081580;28;20044;-81
2023/03/07 02:18:05;;;;;;;6.45;1.63;;;;;;;;;;5087131;28;20072;-80
2023/03/07 02:20:31;;;;;;;8.05;1.63;;;;;;;;;;5087845;28;20051;-80
2023/03/07 02:22:57;;;;;;;9.52;1.90;;;;;;;;;;5088329;28;20040;-81
2023/03/07 02:25:42;;;;;;;8.32;1.52;;;;;;;;;;5099494;28;20040;-79
2023/03/07 02:28:11;;;;;;;10.18;1.80;;;;;;;;;;5089376;28;20036;-80
2023/03/07 02:30:37;;;;;;;10.30;1.60;;;;;;;;;;5107157;28;20071;-80
2023/03/07 02:33:04;;;;;;;6.32;1.70;;;;;;;;;;5103738;28;20098;-80
2023/03/07 02:35:30;;;;;;;10.57;1.90;;;;;;;;;;5091173;28;20048;-80
2023/03/07 02:37:58;;;;;;;11.07;1.65;;;;;;;;;;5088098;28;20529;-80
2023/03/07 02:40:26;;;;;;;7.53;1.65;;;;;;;;;;5099404;28;20040;-80
2023/03/07 02:42:54;;;;;;;10.15;2.13;;;;;;;;;;5095727;28;20048;-81
2023/03/07 02:45:20;;;;;;;10.30;1.60;;;;;;;;;;5088101;28;20053;-79
2023/03/07 02:47:46;;;;;;;10.35;1.70;;;;;;;;;;5096650;28;20050;-80
2023/03/07 02:50:13;;;;;;;7.95;1.50;;;;;;;;;;5104624;28;20047;-79
2023/03/07 02:52:40;;;;;;;9.48;1.55;;;;;;;;;;5091268;28;20095;-80
2023/03/07 02:55:07;;;;;;;11.55;1.88;;;;;;;;;;5091347;28;20047;-80
2023/03/07 02:57:33;;;;;;;10.18;1.65;;;;;;;;;;5100467;28;20068;-80
2023/03/07 02:59:59;;;;;;;10.65;1.50;;;;;;;;;;5108657;28;20040;-80
2023/03/07 03:02:26;;;;;;;10.55;1.70;;;;;;;;;;5085806;28;20560;-79
2023/03/07 03:04:52;;;;;;;9.63;1.10;;;;;;;;;;5075161;28;20047;-81
2023/03/07 03:07:18;;;;;;;11.80;1.80;;;;;;;;;;5088805;28;20627;-80
2023/03/07 03:09:44;;;;;;;6.38;1.52;;;;;;;;;;5073014;28;20036;-81
2023/03/07 03:12:10;;;;;;;9.25;1.60;;;;;;;;;;5073257;28;20434;-81
2023/03/07 03:14:36;;;;;;;9.80;1.77;;;;;;;;;;5083883;28;20044;-81
2023/03/07 03:17:02;;;;;;;12.23;2.25;;;;;;;;;;5085495;28;20051;-81
2023/03/07 03:19:29;;;;;;;11.25;1.60;;;;;;;;;;5078327;28;20083;-81
2023/03/07 03:21:55;;;;;;;7.88;1.35;;;;;;;;;;5073112;28;20037;-81
2023/03/07 03:24:21;;;;;;;9.18;1.60;;;;;;;;;;5072618;28;20044;-81
2023/03/07 03:26:47;;;;;;;13.60;2.08;;;;;;;;;;5073140;28;20045;-81
2023/03/07 03:29:13;;;;;;;9.35;1.58;;;;;;;;;;5073577;28;20491;-81
2023/03/07 03:31:39;;;;;;;7.82;1.40;;;;;;;;;;5070491;28;20044;-80
2023/03/07 03:34:05;;;;;;;9.07;1.70;;;;;;;;;;5086166;28;20044;-81
2023/03/07 03:36:31;;;;;;;9.57;1.52;;;;;;;;;;5082148;28;20041;-80
2023/03/07 03:38:58;;;;;;;11.45;1.98;;;;;;;;;;5076725;28;20078;-81
2023/03/07 03:41:24;;;;;;;10.80;1.30;;;;;;;;;;5076606;28;20052;-81
2023/03/07 03:43:51;;;;;;;14.48;1.42;;;;;;;;;;5076420;28;20043;-81
2023/03/07 03:46:19;;;;;;;11.30;1.30;;;;;;;;;;5075912;28;20197;-80
2023/03/07 03:48:51;;;;;;;12.70;1.42;;;;;;;;;;5077512;28;20487;-81
2023/03/07 03:51:18;;;;;;;11.40;1.67;;;;;;;;;;5081017;28;20047;-81
2023/03/07 03:53:45;;;;;;;9.18;1.42;;;;;;;;;;5075004;28;20052;-79
2023/03/07 03:56:12;;;;;;;8.63;1.23;;;;;;;;;;5096665;28;20047;-81
2023/03/07 03:58:38;;;;;;;9.07;1.23;;;;;;;;;;5099803;28;20047;-81
2023/03/07 04:01:06;;;;;;;8.38;1.45;;;;;;;;;;5098702;28;20043;-80
2023/03/07 04:03:36;;;;;;;7.60;1.33;;;;;;;;;;5106025;28;20043;-81
2023/03/07 04:06:03;;;;;;;14.70;1.67;;;;;;;;;;5103736;28;20048;-81
2023/03/07 04:08:30;;;;;;;10.85;1.80;;;;;;;;;;5086943;28;20047;-81
2023/03/07 04:10:56;;;;;;;10.90;1.27;;;;;;;;;;5086616;28;20044;-80
2023/03/07 04:13:22;;;;;;;10.60;1.30;;;;;;;;;;5092693;28;20048;-81
2023/03/07 04:15:49;;;;;;;11.13;1.60;;;;;;;;;;5090496;28;20056;-81
2023/03/07 04:18:16;;;;;;;9.35;1.60;;;;;;;;;;5101180;28;20059;-81
2023/03/07 04:20:45;;;;;;;11.93;1.60;;;;;;;;;;5087777;28;20113;-80
2023/03/07 04:23:11;;;;;;;13.05;2.08;;;;;;;;;;5091375;28;20040;-81
2023/03/07 04:25:37;;;;;;;11.68;1.50;;;;;;;;;;5089831;28;20387;-81
2023/03/07 04:28:03;;;;;;;11.50;1.65;;;;;;;;;;5100895;28;20048;-81
2023/03/07 04:30:29;;;;;;;16.10;1.40;;;;;;;;;;5094223;28;20049;-81
2023/03/07 04:32:55;;;;;;;9.93;1.55;;;;;;;;;;5095955;28;20051;-80
2023/03/07 04:35:21;;;;;;;12.40;1.45;;;;;;;;;;5096725;28;20522;-80
2023/03/07 04:37:49;;;;;;;7.43;1.02;;;;;;;;;;5093407;28;20074;-81
2023/03/07 04:40:15;;;;;;;11.40;1.50;;;;;;;;;;5098719;28;20048;-81
2023/03/07 04:42:41;;;;;;;10.63;1.30;;;;;;;;;;5086382;28;20036;-81
2023/03/07 04:45:08;;;;;;;13.90;1.35;;;;;;;;;;5103120;28;20052;-79
2023/03/07 04:47:34;;;;;;;12.00;1.42;;;;;;;;;;5086706;28;20118;-81
2023/03/07 04:50:00;;;;;;;12.95;1.63;;;;;;;;;;5091103;28;20048;-80
2023/03/07 04:52:26;;;;;;;15.13;1.67;;;;;;;;;;5108833;28;20048;-81
2023/03/07 04:54:52;;;;;;;8.25;1.20;;;;;;;;;;5089280;28;20051;-80
2023/03/07 04:57:18;;;;;;;11.90;1.45;;;;;;;;;;5107834;28;20044;-80
2023/03/07 04:59:44;;;;;;;12.63;1.45;;;;;;;;;;5106812;28;20114;-81
2023/03/07 05:02:11;;;;;;;12.82;1.50;;;;;;;;;;5104843;28;20411;-81
2023/03/07 05:04:37;;;;;;;13.73;1.48;;;;;;;;;;5086409;28;20051;-80
2023/03/07 05:07:04;;;;;;;10.45;1.58;;;;;;;;;;5086605;28;20052;-79
2023/03/07 05:09:30;;;;;;;11.00;1.30;;;;;;;;;;5089381;28;20049;-81
2023/03/07 05:11:56;;;;;;;8.55;1.58;;;;;;;;;;5085584;28;20050;-80
2023/03/07 05:14:22;;;;;;;11.82;1.63;;;;;;;;;;5098138;28;20045;-80
2023/03/07 05:16:48;;;;;;;12.50;1.60;;;;;;;;;;5095237;28;20505;-80
2023/03/07 05:19:14;;;;;;;13.15;1.60;;;;;;;;;;5106011;28;20128;-80
2023/03/07 05:21:42;;;;;;;15.75;1.88;;;;;;;;;;5087223;28;20142;-80
2023/03/07 05:24:09;;;;;;;19.92;1.90;;;;;;;;;;5095553;28;20047;-80
2023/03/07 05:26:35;;;;;;;13.90;1.67;;;;;;;;;;5101226;28;20048;-80
2023/03/07 05:29:01;;;;;;;9.43;1.65;;;;;;;;;;5083556;28;20037;-81
2023/03/07 05:31:27;;;;;;;14.10;1.75;;;;;;;;;;5087493;28;20043;-80
2023/03/07 05:33:53;;;;;;;15.57;1.70;;;;;;;;;;5086060;28;20074;-81
2023/03/07 05:36:19;;;;;;;10.95;1.30;;;;;;;;;;5086633;28;20048;-81
2023/03/07 05:38:46;;;;;;;11.68;1.42;;;;;;;;;;5092555;28;20045;-80
2023/03/07 05:41:12;;;;;;;12.52;1.42;;;;;;;;;;5089754;28;20041;-80
2023/03/07 05:43:38;;;;;;;10.50;1.25;;;;;;;;;;5084576;28;20040;-80
2023/03/07 05:46:04;;;;;;;12.13;1.38;;;;;;;;;;5096950;28;20052;-79
2023/03/07 05:48:30;;;;;;;13.18;2.08;;;;;;;;;;5085177;28;20045;-80
2023/03/07 05:51:00;;;;;;;11.02;1.38;;;;;;;;;;5082103;28;20040;-80
2023/03/07 05:53:26;;;;;;;14.48;1.58;;;;;;;;;;5083701;28;20123;-80
2023/03/07 05:55:52;;;;;;;12.73;1.67;;;;;;;;;;5084382;28;20045;-81
2023/03/07 05:58:18;;;;;;;14.80;1.40;;;;;;;;;;5083452;28;20119;-80
2023/03/07 06:00:44;;;;;;;9.70;1.30;;;;;;;;;;5102134;28;20043;-80
2023/03/07 06:03:10;;;;;;;9.30;1.35;;;;;;;;;;5098460;28;20051;-81
2023/03/07 06:05:36;;;;;;;13.50;2.05;;;;;;;;;;5096158;28;20048;-80
2023/03/07 06:08:02;;;;;;;13.85;1.77;;;;;;;;;;5101034;28;20071;-80
2023/03/07 06:10:28;;;;;;;12.20;1.30;;;;;;;;;;5083926;28;20044;-81
2023/03/07 06:12:54;;;;;;;11.77;1.42;;;;;;;;;;5084290;28;20040;-80
2023/03/07 06:15:21;;;;;;;11.73;1.40;;;;;;;;;;5092680;28;20487;-80
2023/03/07 06:17:47;;;;;;;13.90;1.73;;;;;;;;;;5088969;28;20052;-81
2023/03/07 06:20:15;;;;;;;12.75;1.50;;;;;;;;;;5083076;28;20051;-80
2023/03/07 06:22:41;;;;;;;12.00;1.48;;;;;;;;;;5083774;28;20044;-81
2023/03/07 06:25:08;;;;;;;7.95;1.50;;;;;;;;;;5102080;28;20048;-81
2023/03/07 06:27:34;;;;;;;10.13;1.50;;;;;;;;;;5086439;28;20098;-80
2023/03/07 06:30:01;;;;;;;12.05;1.38;;;;;;;;;;5093115;28;20163;-80
2023/03/07 06:32:27;;;;;;;9.32;1.25;;;;;;;;;;5106570;28;20044;-80
2023/03/07 06:34:53;;;;;;;16.38;1.48;;;;;;;;;;5099535;28;20048;-81
2023/03/07 06:37:19;;;;;;;11.38;1.48;;;;;;;;;;5087073;28;20125;-81
2023/03/07 06:39:45;;;;;;;13.57;1.67;;;;;;;;;;5087377;28;20041;-80
2023/03/07 06:42:11;;;;;;;9.75;1.50;;;;;;;;;;5096909;28;20074;-81
2023/03/07 06:44:37;;;;;;;10.07;1.65;;;;;;;;;;5089240;28;20032;-80
2023/03/07 06:47:04;;;;;;;8.52;1.42;;;;;;;;;;5106290;28;20144;-80
2023/03/07 06:49:30;;;;;;;10.48;1.60;;;;;;;;;;5099543;28;20066;-80
2023/03/07 06:51:56;;;;;;;12.90;1.80;;;;;;;;;;5092443;28;20061;-81
2023/03/07 06:54:22;;;;;;;10.52;1.83;;;;;;;;;;5107018;28;20067;-80
2023/03/07 06:56:50;;;;;;;15.30;1.73;;;;;;;;;;5094819;28;20020;-79
2023/03/07 06:59:16;;;;;;;11.13;1.55;;;;;;;;;;5092401;28;20056;-80
2023/03/07 07:01:42;;;;;;;8.85;1.67;;;;;;;;;;5093153;28;20045;-79
2023/03/07 07:04:10;;;;;;;13.32;1.50;;;;;;;;;;5092653;28;20040;-80
2023/03/07 07:06:36;;;;;;;12.27;1.75;;;;;;;;;;5093935;28;20053;-79
2023/03/07 07:09:05;;;;;;;13.27;1.50;;;;;;;;;;5102088;28;20086;-80
2023/03/07 07:11:32;;;;;;;13.23;1.60;;;;;;;;;;5094096;28;20032;-80
2023/03/07 07:13:58;;;;;;;15.20;1.67;;;;;;;;;;5111304;28;20044;-80
2023/03/07 07:16:24;;;;;;;9.90;1.60;;;;;;;;;;5113906;28;20062;-80
2023/03/07 07:18:53;;;;;;;10.30;1.30;;;;;;;;;;5100561;28;20037;-80
2023/03/07 07:21:19;;;;;;;12.35;1.83;;;;;;;;;;5098214;28;20024;-86
2023/03/07 07:23:45;;;;;;;10.50;1.52;;;;;;;;;;5097211;28;20040;-78
2023/03/07 07:26:11;;;;;;;7.43;1.20;;;;;;;;;;5097113;28;20107;-80
2023/03/07 07:28:38;;;;;;;11.32;1.98;;;;;;;;;;5107649;28;20382;-80
2023/03/07 07:31:04;;;;;;;10.45;1.38;;;;;;;;;;5116738;28;20025;-80
2023/03/07 07:33:30;;;;;;;10.77;1.40;;;;;;;;;;5110096;28;20056;-80
2023/03/07 07:35:56;;;;;;;11.73;1.60;;;;;;;;;;5107808;28;20041;-80
2023/03/07 07:38:22;;;;;;;11.73;1.15;;;;;;;;;;5095138;28;20096;-81
2023/03/07 07:40:48;;;;;;;8.85;1.33;;;;;;;;;;5093059;28;20047;-80
2023/03/07 07:43:15;;;;;;;9.32;1.30;;;;;;;;;;5098896;28;20048;-80
2023/03/07 07:45:41;;;;;;;13.23;1.60;;;;;;;;;;5112239;28;20043;-81
2023/03/07 07:48:08;;;;;;;9.55;1.60;;;;;;;;;;5110854;28;20104;-81
2023/03/07 07:50:34;;;;;;;10.48;1.30;;;;;;;;;;5096594;28;20045;-81
2023/03/07 07:53:00;;;;;;;10.15;1.60;;;;;;;;;;5090924;28;20059;-81
2023/03/07 07:55:26;;;;;;;12.88;2.38;;;;;;;;;;5090703;28;20036;-81
2023/03/07 07:57:52;;;;;;;12.15;1.75;;;;;;;;;;5093746;28;20044;-80
2023/03/07 08:00:20;;;;;;;12.98;2.13;;;;;;;;;;5089727;28;20045;-81
2023/03/07 08:02:50;;;;;;;11.50;2.00;;;;;;;;;;5088147;28;20489;-81
2023/03/07 08:05:16;;;;;;;11.73;1.50;;;;;;;;;;5088901;28;20100;-81
2023/03/07 08:07:43;;;;;;;7.45;1.33;;;;;;;;;;5071037;28;20113;-80
2023/03/07 08:10:09;;;;;;;8.65;1.45;;;;;;;;;;5089892;28;20060;-81
2023/03/07 08:12:36;;;;;;;9.35;1.35;;;;;;;;;;5090795;28;20045;-81
2023/03/07 08:15:02;;;;;;;11.98;1.83;;;;;;;;;;5092596;28;20052;-81
2023/03/07 08:17:29;;;;;;;10.82;1.40;;;;;;;;;;5092664;28;20048;-81
2023/03/07 08:20:00;;;;;;;13.95;1.65;;;;;;;;;;5091875;28;20047;-81
2023/03/07 08:22:26;;;;;;;12.45;1.50;;;;;;;;;;5101944;28;20044;-81
2023/03/07 08:24:52;;;;;;;7.03;1.30;;;;;;;;;;5103139;28;20044;-81
2023/03/07 08:27:18;;;;;;;13.23;1.67;;;;;;;;;;5106464;28;20048;-81
2023/03/07 08:29:47;;;;;;;8.70;1.42;;;;;;;;;;5107503;28;20387;-79
2023/03/07 08:32:14;;;;;;;8.38;1.38;;;;;;;;;;5102064;28;20083;-80
2023/03/07 08:34:40;;;;;;;10.65;1.60;;;;;;;;;;5082329;28;20048;-82
2023/03/07 08:37:06;;;;;;;9.95;1.65;;;;;;;;;;5082327;28;20048;-80
2023/03/07 08:39:32;;;;;;;5.07;1.05;;;;;;;;;;5079861;28;20052;-77
2023/03/07 08:41:59;;;;;;;7.50;1.20;;;;;;;;;;5076726;28;20048;-77
2023/03/07 08:44:25;;;;;;;8.20;1.35;;;;;;;;;;5081121;28;20096;-79
2023/03/07 08:46:51;;;;;;;7.22;1.17;;;;;;;;;;5100063;28;20055;-80
2023/03/07 08:49:17;;;;;;;9.43;1.33;;;;;;;;;;5108502;28;20109;-80
2023/03/07 08:51:46;;;;;;;4.78;0.98;;;;;;;;;;5096664;28;20043;-80
2023/03/07 08:54:12;;;;;;;9.68;1.20;;;;;;;;;;5096901;28;20028;-80
2023/03/07 08:56:38;;;;;;;12.18;1.05;;;;;;;;;;5099923;28;20027;-81
2023/03/07 08:59:04;;;;;;;9.32;1.27;;;;;;;;;;5114122;28;20055;-81
2023/03/07 09:01:31;;;;;;;8.73;1.13;;;;;;;;;;5111760;28;20059;-78
2023/03/07 09:03:58;;;;;;;7.38;1.30;;;;;;;;;;5113877;28;20048;-81
2023/03/07 09:06:24;;;;;;;7.43;1.35;;;;;;;;;;5119120;28;20066;-82
2023/03/07 09:08:50;;;;;;;7.75;1.67;;;;;;;;;;5110313;28;20036;-81
2023/03/07 09:11:17;;;;;;;11.55;2.50;;;;;;;;;;5110145;28;20036;-81
2023/03/07 09:13:43;;;;;;;11.23;1.60;;;;;;;;;;5090909;28;20051;-75
2023/03/07 09:16:10;;;;;;;9.50;2.08;;;;;;;;;;5075793;28;20056;-76
2023/03/07 09:18:36;;;;;;;10.18;1.33;;;;;;;;;;5075152;28;20043;-75
2023/03/07 09:21:03;;;;;;;8.80;1.40;;;;;;;;;;5074577;28;20036;-76
2023/03/07 09:23:29;;;;;;;10.45;1.67;;;;;;;;;;5087450;28;20045;-84
2023/03/07 09:25:58;;;;;;;7.82;1.10;;;;;;;;;;5085842;28;20101;-75
2023/03/07 09:28:24;;;;;;;7.88;1.30;;;;;;;;;;5098146;28;20089;-81
2023/03/07 09:30:50;;;;;;;6.68;1.25;;;;;;;;;;5096869;28;20044;-75
2023/03/07 09:33:16;;;;;;;5.32;1.13;;;;;;;;;;5091905;28;20555;-79
2023/03/07 09:35:42;;;;;;;4.35;0.82;;;;;;;;;;5093941;28;20040;-76
2023/03/07 09:38:09;;;;;;;6.95;1.35;;;;;;;;;;5093981;28;20169;-76
2023/03/07 09:40:35;;;;;;;6.65;1.30;;;;;;;;;;5080405;28;20494;-76
2023/03/07 09:43:31;;;;;;;8.95;1.50;;;;;;;;;;5073587;28;20051;-76
2023/03/07 09:46:08;;;;;;;7.10;1.10;;;;;;;;;;5077396;28;20491;-76
2023/03/07 09:48:51;;;;;;;7.70;1.30;;;;;;;;;;5076200;28;20435;-76
2023/03/07 09:51:22;;;;;;;8.00;1.10;;;;;;;;;;5080481;28;20130;-74
2023/03/07 09:53:48;;;;;;;;;;;;;;;;;;5072433;28;20048;-77
2023/03/07 09:56:35;;;;;;;8.70;1.20;;;;;;;;;;5080259;28;20392;-76
2023/03/07 09:59:09;;;;;;;12.10;1.30;;;;;;;;;;5075762;28;20075;-76
2023/03/07 10:01:37;;;;;;;9.43;1.40;;;;;;;;;;5092108;28;20150;-77
2023/03/07 10:04:04;;;;;;;9.02;1.25;;;;;;;;;;5076664;28;20040;-76
2023/03/07 10:06:38;;;;;;;8.73;1.30;;;;;;;;;;5077427;28;20124;-76
2023/03/07 10:09:06;;;;;;;9.95;1.33;;;;;;;;;;5077243;28;20055;-76
2023/03/07 10:11:51;;;;;;;7.78;1.13;;;;;;;;;;5080964;28;20491;-76
2023/03/07 10:14:36;;;;;;;6.43;1.10;;;;;;;;;;5084648;28;20056;-76
2023/03/07 10:17:25;;;;;;;6.00;1.02;;;;;;;;;;5083607;28;20047;-76
2023/03/07 10:19:53;;;;;;;6.15;0.85;;;;;;;;;;5089419;28;20039;-76
2023/03/07 10:22:38;;;;;;;6.75;1.17;;;;;;;;;;5090016;28;20490;-77
2023/03/07 10:25:07;;;;;;;6.13;1.27;;;;;;;;;;5077816;28;20049;-76
2023/03/07 10:27:33;;;;;;;5.43;1.00;;;;;;;;;;5081034;28;20048;-76
2023/03/07 10:30:01;;;;;;;8.32;1.10;;;;;;;;;;5087435;28;20105;-76
2023/03/07 10:32:36;;;;;;;6.40;1.10;;;;;;;;;;5083202;28;20048;-76
2023/03/07 10:35:15;;;;;;;7.90;1.23;;;;;;;;;;5073771;28;20056;-76
2023/03/07 10:37:53;;;;;;;10.30;1.10;;;;;;;;;;5081476;28;20043;-76
2023/03/07 10:40:30;;;;;;;9.52;1.02;;;;;;;;;;5079054;28;20048;-77
2023/03/07 10:42:57;;;;;;;10.05;1.35;;;;;;;;;;5074435;28;20045;-77
2023/03/07 10:45:24;;;;;;;5.20;1.30;;;;;;;;;;5089750;28;20039;-79
2023/03/07 10:47:50;;;;;;;11.90;4.57;;;;;;;;;;5104462;28;20058;-81
2023/03/07 10:50:16;;;;;;;8.10;2.70;;;;;;;;;;5100600;28;20040;-81
2023/03/07 10:52:47;;;;;;;13.13;4.10;;;;;;;;;;5100614;28;20036;-81
2023/03/07 10:55:32;;;;;;;9.65;2.45;;;;;;;;;;5089771;28;20169;-81
2023/03/07 10:58:21;;;;;;;11.88;2.20;;;;;;;;;;5103623;28;20059;-81
2023/03/07 11:00:59;;;;;;;8.98;1.85;;;;;;;;;;5091982;28;20045;-81
2023/03/07 11:03:31;;;;;;;10.50;1.33;;;;;;;;;;5084891;28;20136;-81
2023/03/07 11:05:58;;;;;;;5.82;1.13;;;;;;;;;;5091049;28;20063;-81
2023/03/07 11:08:44;;;;;;;6.47;1.33;;;;;;;;;;5091143;28;20073;-81
2023/03/07 11:11:21;;;;;;;12.13;1.70;;;;;;;;;;5093633;28;20048;-80
2023/03/07 11:14:03;;;;;;;10.73;1.45;;;;;;;;;;5093652;28;20037;-81
2023/03/07 11:16:30;;;;;;;12.05;1.30;;;;;;;;;;5084609;28;20090;-81
2023/03/07 11:18:56;;;;;;;11.43;1.55;;;;;;;;;;5094450;28;20123;-80
2023/03/07 11:21:25;;;;;;;13.35;1.45;;;;;;;;;;5093658;28;20123;-81
2023/03/07 11:23:58;;;;;;;8.63;1.30;;;;;;;;;;5084730;28;20104;-80
2023/03/07 11:26:24;;;;;;;9.20;1.30;;;;;;;;;;5088847;28;20047;-79
2023/03/07 11:29:04;;;;;;;10.75;1.90;;;;;;;;;;5086412;28;20040;-80
2023/03/07 11:31:35;;;;;;;9.32;1.50;;;;;;;;;;5090983;28;20482;-81
2023/03/07 11:34:13;;;;;;;8.38;1.50;;;;;;;;;;5088476;28;20040;-80
2023/03/07 11:36:42;;;;;;;9.70;1.20;;;;;;;;;;5091834;28;20044;-80
2023/03/07 11:39:31;;;;;;;8.50;1.50;;;;;;;;;;5101116;28;20048;-80
2023/03/07 11:42:04;;;;;;;7.55;1.33;;;;;;;;;;5102973;28;20048;-81
2023/03/07 11:44:43;;;;;;;10.63;1.77;;;;;;;;;;5102437;28;20101;-81
2023/03/07 11:47:12;;;;;;;10.93;1.58;;;;;;;;;;5094741;28;20051;-81
2023/03/07 11:49:57;;;;;;;8.40;1.58;;;;;;;;;;5085610;28;20041;-80
2023/03/07 11:52:32;;;;;;;8.55;1.30;;;;;;;;;;5086658;28;20090;-81
2023/03/07 11:55:10;;;;;;;7.72;1.50;;;;;;;;;;5103940;28;20064;-81
2023/03/07 11:57:57;;;;;;;6.35;1.40;;;;;;;;;;5100018;28;20044;-81
2023/03/07 12:00:41;;;;;;;7.85;1.33;;;;;;;;;;5104061;28;20120;-81
2023/03/07 12:03:27;;;;;;;8.23;1.52;;;;;;;;;;5098084;28;20048;-81
2023/03/07 12:05:53;;;;;;;7.53;1.40;;;;;;;;;;5098326;28;20105;-81
2023/03/07 12:08:38;;;;;;;10.52;1.70;;;;;;;;;;5110011;28;20055;-81
2023/03/07 12:11:23;;;;;;;9.80;1.52;;;;;;;;;;5109969;28;20084;-81
2023/03/07 12:13:53;;;;;;;8.07;1.88;;;;;;;;;;5099228;28;20076;-81
2023/03/07 12:16:26;;;;;;;7.55;1.40;;;;;;;;;;5088835;28;20112;-81
2023/03/07 12:19:02;;;;;;;11.00;1.60;;;;;;;;;;5095762;28;20052;-80
2023/03/07 12:21:43;;;;;;;9.90;1.65;;;;;;;;;;5093542;28;20033;-81
2023/03/07 12:24:22;;;;;;;7.72;1.48;;;;;;;;;;5109318;28;20074;-81
2023/03/07 12:26:55;;;;;;;10.05;1.60;;;;;;;;;;5092992;28;20051;-81
2023/03/07 12:29:24;;;;;;;7.38;1.45;;;;;;;;;;5100696;28;20052;-81
2023/03/07 12:31:52;;;;;;;6.40;1.20;;;;;;;;;;5105308;28;20047;-81
2023/03/07 12:34:23;;;;;;;6.13;1.10;;;;;;;;;;5099096;28;20048;-81
2023/03/07 12:36:57;;;;;;;7.18;1.15;;;;;;;;;;5089780;28;20059;-80
2023/03/07 12:39:42;;;;;;;12.13;1.20;;;;;;;;;;5092481;28;20648;-80
2023/03/07 12:42:24;;;;;;;6.70;1.10;;;;;;;;;;5092758;28;20040;-80
2023/03/07 12:44:56;;;;;;;10.07;1.30;;;;;;;;;;5090473;28;20045;-81
2023/03/07 12:47:35;;;;;;;10.73;1.48;;;;;;;;;;5088065;28;20141;-80
2023/03/07 12:50:08;;;;;;;7.45;1.30;;;;;;;;;;5092410;28;20046;-81
2023/03/07 12:52:45;;;;;;;6.82;1.08;;;;;;;;;;5086159;28;20049;-81
2023/03/07 12:55:24;;;;;;;11.80;1.15;;;;;;;;;;5091487;28;20044;-81
2023/03/07 12:58:13;;;;;;;9.55;1.20;;;;;;;;;;5092530;28;20069;-81
2023/03/07 13:00:41;;;;;;;6.90;0.90;;;;;;;;;;5089505;28;20074;-81
2023/03/07 13:03:09;;;;;;;8.07;1.40;;;;;;;;;;5088497;28;20057;-81
2023/03/07 13:05:36;;;;;;;11.13;1.38;;;;;;;;;;5091890;28;20055;-81
2023/03/07 13:08:03;;;;;;;11.70;1.67;;;;;;;;;;5095740;28;20052;-81
2023/03/07 13:10:30;;;;;;;6.57;1.23;;;;;;;;;;5102064;28;20134;-80
2023/03/07 13:12:56;;;;;;;9.57;1.02;;;;;;;;;;5090309;28;20532;-81
2023/03/07 13:15:22;;;;;;;7.85;1.30;;;;;;;;;;5088284;28;20052;-82
2023/03/07 13:17:48;;;;;;;8.73;1.38;;;;;;;;;;5105611;28;20046;-81
2023/03/07 13:20:16;;;;;;;10.45;1.30;;;;;;;;;;5108050;28;20052;-81
2023/03/07 13:22:42;;;;;;;8.35;1.40;;;;;;;;;;5104876;28;20043;-81
2023/03/07 13:25:21;;;;;;;7.32;1.20;;;;;;;;;;5108127;28;20048;-81
2023/03/07 13:27:50;;;;;;;10.55;1.65;;;;;;;;;;5084749;28;20056;-81
2023/03/07 13:30:42;;;;;;;8.80;1.65;;;;;;;;;;5098312;28;20044;-81
2023/03/07 13:33:25;;;;;;;9.55;1.80;;;;;;;;;;5087957;28;20494;-81
2023/03/07 13:35:53;;;;;;;12.82;1.85;;;;;;;;;;5091172;28;20056;-81
2023/03/07 13:38:25;;;;;;;8.77;1.40;;;;;;;;;;5093718;28;20059;-82
2023/03/07 13:40:55;;;;;;;7.38;1.58;;;;;;;;;;5083827;28;21282;-80
2023/03/07 13:43:24;;;;;;;10.25;2.25;;;;;;;;;;5089147;28;20051;-81
2023/03/07 13:45:53;;;;;;;7.50;1.50;;;;;;;;;;5080020;28;20052;-80
2023/03/07 13:48:19;;;;;;;9.40;1.42;;;;;;;;;;5084067;28;20043;-80
2023/03/07 13:50:45;;;;;;;11.77;2.10;;;;;;;;;;5087897;28;20036;-80
2023/03/07 13:53:14;;;;;;;8.27;1.48;;;;;;;;;;5088177;28;20045;-81
2023/03/07 13:55:45;;;;;;;13.20;2.05;;;;;;;;;;5087645;28;20057;-81
2023/03/07 13:58:26;;;;;;;8.73;1.42;;;;;;;;;;5086831;28;20044;-81
2023/03/07 14:00:54;;;;;;;8.88;1.40;;;;;;;;;;5087203;28;20087;-81
2023/03/07 14:03:24;;;;;;;9.30;1.30;;;;;;;;;;5104601;28;20064;-81
2023/03/07 14:05:50;;;;;;;12.25;1.80;;;;;;;;;;5103031;28;20040;-81
2023/03/07 14:08:18;;;;;;;8.50;1.35;;;;;;;;;;5089279;28;20040;-80
2023/03/07 14:10:45;;;;;;;10.63;2.10;;;;;;;;;;5088701;28;20051;-81
2023/03/07 14:13:21;;;;;;;19.48;4.75;;;;;;;;;;5087605;28;20056;-81
2023/03/07 14:16:10;;;;;;;13.57;3.45;;;;;;;;;;5097315;28;20037;-81
2023/03/07 14:18:39;;;;;;;9.40;2.00;;;;;;;;;;5087958;28;20486;-81
2023/03/07 14:21:25;;;;;;;10.98;1.73;;;;;;;;;;5086601;28;20112;-81
2023/03/07 14:24:09;;;;;;;12.95;2.17;;;;;;;;;;5087309;28;20041;-81
2023/03/07 14:26:41;;;;;;;10.93;1.98;;;;;;;;;;5088295;28;20037;-81
2023/03/07 14:29:10;;;;;;;11.70;1.80;;;;;;;;;;5091501;28;20043;-81
2023/03/07 14:31:38;;;;;;;9.27;1.75;;;;;;;;;;5100218;28;20044;-81
2023/03/07 14:34:17;;;;;;;7.95;1.58;;;;;;;;;;5094008;28;20044;-80
2023/03/07 14:36:44;;;;;;;11.18;1.80;;;;;;;;;;5104789;28;20040;-81
2023/03/07 14:39:14;;;;;;;12.80;1.63;;;;;;;;;;5088945;28;20044;-81
2023/03/07 14:42:04;;;;;;;7.05;1.38;;;;;;;;;;5087199;28;20068;-80
2023/03/07 14:44:33;;;;;;;8.43;1.60;;;;;;;;;;5094424;28;20091;-81
2023/03/07 14:47:20;;;;;;;8.15;1.50;;;;;;;;;;5090134;28;20074;-80